Time;durP1;ratioP1;P1;durP2;ratioP2;P2;SDS_P1;SDS_P2;PMS_P1;PMS_P2;Temp;Humidity;BMP_temperature;BMP_pressure;BME280_temperature;BME280_humidity;BME280_pressure;Samples;Min_cycle;Max_cycle;Signal;HPM_P1;HPM_P2
2023/06/22 00:01:18;;;;;;;5.82;5.28;;;;;;;;;;5068798;27;98733;-75
2023/06/22 00:03:44;;;;;;;8.75;5.53;;;;;;;;;;5068110;27;99052;-76
2023/06/22 00:06:11;;;;;;;5.90;5.05;;;;;;;;;;5073152;27;98302;-77
2023/06/22 00:08:37;;;;;;;8.05;5.72;;;;;;;;;;5069782;27;99905;-76
2023/06/22 00:11:04;;;;;;;5.65;5.07;;;;;;;;;;5068161;27;98259;-77
2023/06/22 00:13:30;;;;;;;6.68;5.10;;;;;;;;;;5069402;27;99471;-75
2023/06/22 00:15:56;;;;;;;5.30;4.90;;;;;;;;;;5068800;27;99942;-76
2023/06/22 00:18:27;;;;;;;5.93;5.18;;;;;;;;;;5068299;27;98612;-76
2023/06/22 00:20:57;;;;;;;5.38;4.97;;;;;;;;;;5069849;27;99691;-76
2023/06/22 00:23:24;;;;;;;5.70;5.13;;;;;;;;;;5069634;27;101311;-76
2023/06/22 00:25:50;;;;;;;7.63;5.13;;;;;;;;;;5068724;27;98315;-76
2023/06/22 00:28:16;;;;;;;6.00;4.90;;;;;;;;;;5072926;27;99545;-76
2023/06/22 00:30:43;;;;;;;6.13;5.10;;;;;;;;;;5051456;27;99215;-76
2023/06/22 00:33:09;;;;;;;7.55;5.22;;;;;;;;;;5069067;27;98388;-77
2023/06/22 00:35:36;;;;;;;5.75;5.25;;;;;;;;;;5052611;27;99079;-76
2023/06/22 00:38:04;;;;;;;6.18;5.45;;;;;;;;;;5069957;27;98727;-77
2023/06/22 00:40:31;;;;;;;12.77;5.40;;;;;;;;;;5070277;27;98506;-76
2023/06/22 00:42:58;;;;;;;5.57;5.05;;;;;;;;;;5050759;27;100343;-77
2023/06/22 00:45:24;;;;;;;5.45;4.90;;;;;;;;;;5068976;27;98662;-76
2023/06/22 00:47:52;;;;;;;7.60;5.60;;;;;;;;;;5069444;27;99689;-76
2023/06/22 00:50:24;;;;;;;5.32;4.80;;;;;;;;;;5053391;27;101230;-76
2023/06/22 00:52:56;;;;;;;7.70;5.63;;;;;;;;;;5068397;27;98958;-76
2023/06/22 00:55:23;;;;;;;6.15;5.53;;;;;;;;;;5069092;27;98659;-76
2023/06/22 00:57:50;;;;;;;6.70;5.13;;;;;;;;;;5069730;27;98196;-76
2023/06/22 01:00:20;;;;;;;5.35;4.85;;;;;;;;;;5049807;27;99667;-76
2023/06/22 01:02:51;;;;;;;5.40;4.63;;;;;;;;;;5069168;27;98778;-75
2023/06/22 01:05:18;;;;;;;10.27;5.37;;;;;;;;;;5068226;27;98280;-76
2023/06/22 01:08:00;;;;;;;10.05;5.10;;;;;;;;;;5067717;27;99199;-75
2023/06/22 01:10:30;;;;;;;5.20;4.70;;;;;;;;;;5068989;27;98821;-76
2023/06/22 01:13:01;;;;;;;5.25;4.78;;;;;;;;;;5053943;27;98873;-77
2023/06/22 01:15:29;;;;;;;5.43;4.93;;;;;;;;;;5066833;27;99939;-76
2023/06/22 01:17:56;;;;;;;5.13;4.40;;;;;;;;;;5068774;27;98231;-76
2023/06/22 01:20:23;;;;;;;6.00;4.88;;;;;;;;;;5068779;27;98488;-76
2023/06/22 01:22:56;;;;;;;6.40;5.55;;;;;;;;;;5068726;27;99877;-76
2023/06/22 01:25:31;;;;;;;6.05;5.47;;;;;;;;;;5069141;27;98342;-77
2023/06/22 01:28:14;;;;;;;5.93;5.38;;;;;;;;;;5068167;27;98258;-75
2023/06/22 01:30:41;;;;;;;5.93;5.18;;;;;;;;;;5067882;27;99816;-77
2023/06/22 01:33:10;;;;;;;6.10;5.50;;;;;;;;;;5068476;27;98249;-77
2023/06/22 01:35:38;;;;;;;6.45;5.35;;;;;;;;;;5071171;27;98919;-77
2023/06/22 01:38:05;;;;;;;10.32;4.82;;;;;;;;;;5068353;27;98449;-77
2023/06/22 01:40:32;;;;;;;7.90;5.00;;;;;;;;;;5068025;27;99005;-76
2023/06/22 01:43:00;;;;;;;5.53;5.13;;;;;;;;;;5067297;27;98805;-76
2023/06/22 01:45:27;;;;;;;5.65;5.13;;;;;;;;;;5068633;27;98721;-76
2023/06/22 01:47:54;;;;;;;6.15;4.95;;;;;;;;;;5068888;27;99329;-76
2023/06/22 01:50:21;;;;;;;5.97;5.10;;;;;;;;;;5067414;27;98838;-75
2023/06/22 01:52:48;;;;;;;5.93;5.35;;;;;;;;;;5068541;27;98253;-76
2023/06/22 01:55:14;;;;;;;6.03;5.30;;;;;;;;;;5066562;27;98385;-76
2023/06/22 01:57:41;;;;;;;5.93;5.35;;;;;;;;;;5070513;27;98806;-77
2023/06/22 02:00:09;;;;;;;8.25;7.32;;;;;;;;;;5068635;27;98974;-76
2023/06/22 02:02:46;;;;;;;10.07;6.00;;;;;;;;;;5048409;27;100839;-76
2023/06/22 02:05:16;;;;;;;6.65;5.63;;;;;;;;;;5049487;27;98281;-76
2023/06/22 02:07:54;;;;;;;6.28;5.78;;;;;;;;;;5068085;27;98876;-76
2023/06/22 02:10:22;;;;;;;6.28;5.50;;;;;;;;;;5049250;27;101617;-76
2023/06/22 02:12:50;;;;;;;5.85;5.35;;;;;;;;;;5068478;27;98587;-77
2023/06/22 02:15:16;;;;;;;8.10;5.68;;;;;;;;;;5067730;27;99750;-77
2023/06/22 02:17:45;;;;;;;6.93;6.22;;;;;;;;;;5052110;27;101902;-77
2023/06/22 02:20:13;;;;;;;7.05;6.35;;;;;;;;;;5048528;27;101570;-77
2023/06/22 02:22:41;;;;;;;8.10;6.13;;;;;;;;;;5067660;27;99130;-77
2023/06/22 02:25:10;;;;;;;6.78;6.07;;;;;;;;;;5066960;27;98334;-77
2023/06/22 02:27:40;;;;;;;6.57;5.97;;;;;;;;;;5067062;27;98681;-76
2023/06/22 02:30:09;;;;;;;14.65;6.70;;;;;;;;;;5067518;27;99021;-77
2023/06/22 02:32:41;;;;;;;8.93;6.97;;;;;;;;;;5067110;27;98419;-77
2023/06/22 02:35:09;;;;;;;9.50;6.43;;;;;;;;;;5067392;27;100437;-77
2023/06/22 02:37:38;;;;;;;6.75;6.05;;;;;;;;;;5067135;27;99868;-77
2023/06/22 02:40:07;;;;;;;8.43;6.18;;;;;;;;;;5071068;27;98776;-77
2023/06/22 02:42:33;;;;;;;6.57;6.00;;;;;;;;;;5067574;27;100049;-77
2023/06/22 02:45:00;;;;;;;9.05;6.18;;;;;;;;;;5047564;27;98473;-77
2023/06/22 02:47:26;;;;;;;8.90;6.75;;;;;;;;;;5067523;27;99366;-77
2023/06/22 02:49:53;;;;;;;11.52;6.28;;;;;;;;;;5048767;27;101165;-77
2023/06/22 02:52:20;;;;;;;6.97;6.38;;;;;;;;;;5047850;27;98212;-77
2023/06/22 02:54:46;;;;;;;8.35;6.57;;;;;;;;;;5049115;27;101144;-77
2023/06/22 02:57:14;;;;;;;9.90;6.93;;;;;;;;;;5048576;27;101109;-77
2023/06/22 02:59:42;;;;;;;8.77;6.68;;;;;;;;;;5048347;27;98327;-78
2023/06/22 03:02:11;;;;;;;11.15;6.75;;;;;;;;;;5052642;27;100880;-78
2023/06/22 03:04:38;;;;;;;7.53;6.57;;;;;;;;;;5049360;27;98286;-76
2023/06/22 03:07:05;;;;;;;7.53;6.72;;;;;;;;;;5048058;27;99672;-76
2023/06/22 03:09:33;;;;;;;10.18;6.90;;;;;;;;;;5047804;27;100142;-77
2023/06/22 03:12:00;;;;;;;10.25;6.82;;;;;;;;;;5048436;27;98401;-77
2023/06/22 03:14:34;;;;;;;9.25;7.32;;;;;;;;;;5047869;27;101037;-77
2023/06/22 03:17:03;;;;;;;6.60;5.97;;;;;;;;;;5048513;27;101756;-77
2023/06/22 03:19:31;;;;;;;7.00;6.30;;;;;;;;;;5049159;27;98484;-77
2023/06/22 03:21:59;;;;;;;8.85;6.70;;;;;;;;;;5047174;27;100312;-77
2023/06/22 03:24:28;;;;;;;7.38;6.47;;;;;;;;;;5070168;27;98860;-76
2023/06/22 03:26:55;;;;;;;8.52;6.68;;;;;;;;;;5047540;27;100679;-77
2023/06/22 03:29:22;;;;;;;11.93;7.38;;;;;;;;;;5066480;27;100001;-78
2023/06/22 03:31:48;;;;;;;9.05;6.57;;;;;;;;;;5067062;27;98322;-77
2023/06/22 03:34:15;;;;;;;7.47;6.22;;;;;;;;;;5046837;27;100588;-77
2023/06/22 03:36:45;;;;;;;7.60;6.95;;;;;;;;;;5066884;27;98905;-78
2023/06/22 03:39:11;;;;;;;7.40;6.35;;;;;;;;;;5049797;27;98304;-77
2023/06/22 03:41:40;;;;;;;8.43;6.57;;;;;;;;;;5051346;27;100809;-77
2023/06/22 03:44:06;;;;;;;7.78;7.05;;;;;;;;;;5050803;27;101050;-78
2023/06/22 03:46:35;;;;;;;10.80;7.20;;;;;;;;;;5055393;27;98336;-77
2023/06/22 03:49:03;;;;;;;9.48;7.50;;;;;;;;;;5050857;27;101643;-77
2023/06/22 03:51:31;;;;;;;8.77;7.65;;;;;;;;;;5070552;27;98239;-77
2023/06/22 03:53:58;;;;;;;10.18;8.27;;;;;;;;;;5069324;27;98430;-77
2023/06/22 03:56:24;;;;;;;10.82;7.03;;;;;;;;;;5069688;27;99901;-77
2023/06/22 03:58:51;;;;;;;10.43;8.40;;;;;;;;;;5069981;27;98318;-77
2023/06/22 04:01:17;;;;;;;9.02;8.13;;;;;;;;;;5069593;27;99010;-77
2023/06/22 04:03:44;;;;;;;12.02;8.65;;;;;;;;;;5069211;27;100155;-77
2023/06/22 04:06:11;;;;;;;15.05;9.13;;;;;;;;;;5073486;27;98275;-77
2023/06/22 04:08:37;;;;;;;12.52;8.90;;;;;;;;;;5069937;27;99837;-77
2023/06/22 04:11:04;;;;;;;11.90;8.35;;;;;;;;;;5067862;27;98600;-77
2023/06/22 04:13:31;;;;;;;13.23;9.23;;;;;;;;;;5069878;27;98747;-77
2023/06/22 04:15:58;;;;;;;11.98;8.80;;;;;;;;;;5070023;27;100292;-76
2023/06/22 04:18:24;;;;;;;11.35;9.85;;;;;;;;;;5069177;27;98856;-77
2023/06/22 04:20:50;;;;;;;17.02;11.50;;;;;;;;;;5068724;27;99079;-77
2023/06/22 04:23:17;;;;;;;13.25;11.30;;;;;;;;;;5067750;27;99447;-77
2023/06/22 04:25:43;;;;;;;13.90;10.20;;;;;;;;;;5068915;27;98359;-77
2023/06/22 04:28:12;;;;;;;14.90;11.18;;;;;;;;;;5072487;27;99848;-77
2023/06/22 04:30:46;;;;;;;20.77;12.57;;;;;;;;;;5068735;27;98504;-77
2023/06/22 04:33:16;;;;;;;14.48;12.60;;;;;;;;;;5069546;27;99648;-78
2023/06/22 04:35:46;;;;;;;16.48;11.85;;;;;;;;;;5069296;27;101123;-77
2023/06/22 04:38:13;;;;;;;17.42;13.57;;;;;;;;;;5068705;27;98670;-77
2023/06/22 04:40:40;;;;;;;18.45;12.75;;;;;;;;;;5068832;27;98625;-77
2023/06/22 04:43:06;;;;;;;18.02;12.48;;;;;;;;;;5068047;27;99040;-77
2023/06/22 04:45:33;;;;;;;19.55;12.88;;;;;;;;;;5068635;27;98410;-77
2023/06/22 04:47:59;;;;;;;16.20;12.65;;;;;;;;;;5068231;27;99446;-77
2023/06/22 04:50:27;;;;;;;17.83;13.73;;;;;;;;;;5071255;27;99209;-77
2023/06/22 04:52:54;;;;;;;17.48;13.00;;;;;;;;;;5068697;27;99890;-77
2023/06/22 04:55:21;;;;;;;17.40;13.75;;;;;;;;;;5069061;27;99970;-77
2023/06/22 04:57:48;;;;;;;17.55;13.77;;;;;;;;;;5069275;27;98385;-77
2023/06/22 05:00:17;;;;;;;19.10;13.70;;;;;;;;;;5067839;27;98532;-77
2023/06/22 05:02:45;;;;;;;16.38;13.23;;;;;;;;;;5069514;27;100488;-77
2023/06/22 05:05:13;;;;;;;16.52;12.35;;;;;;;;;;5068824;27;98243;-78
2023/06/22 05:07:43;;;;;;;16.90;13.88;;;;;;;;;;5067685;27;99556;-77
2023/06/22 05:10:12;;;;;;;15.82;13.05;;;;;;;;;;5067953;27;99147;-77
2023/06/22 05:12:39;;;;;;;14.55;12.82;;;;;;;;;;5070795;27;98273;-77
2023/06/22 05:15:06;;;;;;;19.73;13.82;;;;;;;;;;5068524;27;100042;-77
2023/06/22 05:17:33;;;;;;;19.27;13.63;;;;;;;;;;5068499;27;98363;-77
2023/06/22 05:20:00;;;;;;;20.50;13.27;;;;;;;;;;5068116;27;99398;-77
2023/06/22 05:22:26;;;;;;;22.80;13.82;;;;;;;;;;5067792;27;99060;-77
2023/06/22 05:24:52;;;;;;;22.23;13.82;;;;;;;;;;5068278;27;98300;-77
2023/06/22 05:27:22;;;;;;;18.58;14.63;;;;;;;;;;5067974;27;99769;-77
2023/06/22 05:29:49;;;;;;;17.75;14.55;;;;;;;;;;5068700;27;99935;-77
2023/06/22 05:32:15;;;;;;;18.92;15.43;;;;;;;;;;5067896;27;98216;-77
2023/06/22 05:34:42;;;;;;;21.50;14.18;;;;;;;;;;5071060;27;99828;-77
2023/06/22 05:37:09;;;;;;;19.52;15.15;;;;;;;;;;5067579;27;98391;-78
2023/06/22 05:39:37;;;;;;;17.52;14.85;;;;;;;;;;5050371;27;99392;-78
2023/06/22 05:42:07;;;;;;;20.98;14.68;;;;;;;;;;5066725;27;99056;-77
2023/06/22 05:44:37;;;;;;;19.80;15.30;;;;;;;;;;5067558;27;98295;-77
2023/06/22 05:47:03;;;;;;;22.45;15.07;;;;;;;;;;5068084;27;99290;-77
2023/06/22 05:49:32;;;;;;;20.42;15.35;;;;;;;;;;5067570;27;100174;-77
2023/06/22 05:51:59;;;;;;;19.92;15.20;;;;;;;;;;5068052;27;98281;-77
2023/06/22 05:54:29;;;;;;;16.80;15.00;;;;;;;;;;5067439;27;98535;-77
2023/06/22 05:56:55;;;;;;;23.55;14.90;;;;;;;;;;5071081;27;100082;-77
2023/06/22 05:59:22;;;;;;;19.38;14.93;;;;;;;;;;5068196;27;99515;-77
2023/06/22 06:01:51;;;;;;;16.85;15.05;;;;;;;;;;5065472;27;100174;-76
2023/06/22 06:04:18;;;;;;;18.52;14.75;;;;;;;;;;5067678;27;98212;-77
2023/06/22 06:06:45;;;;;;;19.17;14.25;;;;;;;;;;5068121;27;99324;-78
2023/06/22 06:09:11;;;;;;;18.90;14.68;;;;;;;;;;5066280;27;100142;-78
2023/06/22 06:11:38;;;;;;;17.38;13.95;;;;;;;;;;5067231;27;98513;-78
2023/06/22 06:14:04;;;;;;;15.88;14.20;;;;;;;;;;5066800;27;98682;-77
2023/06/22 06:16:31;;;;;;;16.27;14.02;;;;;;;;;;5070402;27;100217;-78
2023/06/22 06:18:58;;;;;;;20.17;13.18;;;;;;;;;;5067189;27;98626;-77
2023/06/22 06:21:25;;;;;;;17.08;13.52;;;;;;;;;;5067706;27;99547;-78
2023/06/22 06:23:53;;;;;;;16.90;13.93;;;;;;;;;;5067220;27;98254;-78
2023/06/22 06:26:27;;;;;;;20.98;13.60;;;;;;;;;;5066331;27;98623;-78
2023/06/22 06:28:54;;;;;;;14.93;13.35;;;;;;;;;;5067643;27;100136;-78
2023/06/22 06:31:21;;;;;;;21.70;13.20;;;;;;;;;;5067066;27;98111;-76
2023/06/22 06:33:47;;;;;;;17.20;13.40;;;;;;;;;;5067882;27;99234;-76
2023/06/22 06:36:15;;;;;;;13.75;12.32;;;;;;;;;;5067342;27;100187;-78
2023/06/22 06:38:41;;;;;;;17.30;13.02;;;;;;;;;;5070197;27;98320;-77
2023/06/22 06:41:07;;;;;;;17.98;13.75;;;;;;;;;;5066468;27;99129;-78
2023/06/22 06:43:34;;;;;;;16.48;13.82;;;;;;;;;;5067945;27;98320;-78
2023/06/22 06:46:00;;;;;;;13.85;12.30;;;;;;;;;;5066798;27;99618;-78
2023/06/22 06:48:27;;;;;;;14.70;12.23;;;;;;;;;;5067204;27;99832;-78
2023/06/22 06:50:53;;;;;;;14.18;12.07;;;;;;;;;;5065659;27;98289;-78
2023/06/22 06:53:20;;;;;;;15.13;12.40;;;;;;;;;;5066915;27;100369;-77
2023/06/22 06:55:46;;;;;;;13.55;12.13;;;;;;;;;;5067302;27;100015;-78
2023/06/22 06:58:13;;;;;;;15.10;11.82;;;;;;;;;;5066472;27;98324;-75
2023/06/22 07:00:39;;;;;;;13.45;12.05;;;;;;;;;;5070780;27;99587;-75
2023/06/22 07:03:07;;;;;;;13.18;11.73;;;;;;;;;;5067343;27;98216;-77
2023/06/22 07:05:33;;;;;;;14.63;12.13;;;;;;;;;;5066270;27;98534;-75
2023/06/22 07:08:00;;;;;;;14.98;11.88;;;;;;;;;;5065607;27;98936;-75
2023/06/22 07:10:27;;;;;;;13.30;10.80;;;;;;;;;;5066895;27;98240;-76
2023/06/22 07:12:54;;;;;;;12.00;9.45;;;;;;;;;;5067039;27;98491;-76
2023/06/22 07:15:21;;;;;;;10.77;9.70;;;;;;;;;;5069804;27;99941;-76
2023/06/22 07:17:47;;;;;;;10.63;9.70;;;;;;;;;;5069899;27;98910;-78
2023/06/22 07:20:13;;;;;;;12.80;9.60;;;;;;;;;;5069570;27;98464;-78
2023/06/22 07:22:43;;;;;;;9.07;8.23;;;;;;;;;;5073804;27;100131;-78
2023/06/22 07:25:10;;;;;;;12.60;8.88;;;;;;;;;;5070489;27;99670;-77
2023/06/22 07:27:43;;;;;;;10.00;8.68;;;;;;;;;;5069581;27;99987;-78
2023/06/22 07:30:10;;;;;;;9.18;8.38;;;;;;;;;;5070714;27;98701;-77
2023/06/22 07:32:36;;;;;;;9.90;8.15;;;;;;;;;;5070977;27;100038;-78
2023/06/22 07:35:04;;;;;;;11.15;9.20;;;;;;;;;;5069393;27;99882;-77
2023/06/22 07:37:33;;;;;;;10.82;9.13;;;;;;;;;;5070336;27;98538;-77
2023/06/22 07:39:59;;;;;;;8.90;8.02;;;;;;;;;;5069266;27;99387;-77
2023/06/22 07:42:26;;;;;;;10.00;8.40;;;;;;;;;;5069082;27;99852;-77
2023/06/22 07:44:53;;;;;;;7.53;6.78;;;;;;;;;;5073871;27;98357;-77
2023/06/22 07:47:20;;;;;;;11.73;8.63;;;;;;;;;;5069243;27;100603;-77
2023/06/22 07:49:48;;;;;;;8.73;7.90;;;;;;;;;;5068861;27;98280;-78
2023/06/22 07:52:15;;;;;;;7.60;6.90;;;;;;;;;;5069508;27;98814;-78
2023/06/22 07:54:41;;;;;;;10.57;7.05;;;;;;;;;;5069076;27;98875;-77
2023/06/22 07:57:07;;;;;;;8.32;7.20;;;;;;;;;;5069813;27;99170;-77
2023/06/22 07:59:34;;;;;;;7.53;6.93;;;;;;;;;;5069647;27;98939;-77
2023/06/22 08:02:02;;;;;;;7.93;7.25;;;;;;;;;;5067908;27;98948;-77
2023/06/22 08:04:28;;;;;;;7.63;7.03;;;;;;;;;;5068760;27;98240;-77
2023/06/22 08:06:55;;;;;;;7.00;6.43;;;;;;;;;;5073065;27;98550;-77
2023/06/22 08:09:21;;;;;;;7.10;6.40;;;;;;;;;;5068478;27;98378;-78
2023/06/22 08:11:49;;;;;;;6.88;6.18;;;;;;;;;;5069947;27;99737;-77
2023/06/22 08:14:15;;;;;;;9.25;6.70;;;;;;;;;;5068438;27;98880;-77
2023/06/22 08:16:42;;;;;;;8.90;7.28;;;;;;;;;;5069125;27;98219;-75
2023/06/22 08:19:08;;;;;;;7.75;7.05;;;;;;;;;;5069569;27;99731;-78
2023/06/22 08:21:35;;;;;;;7.05;6.32;;;;;;;;;;5070293;27;100371;-77
2023/06/22 08:24:02;;;;;;;7.85;6.32;;;;;;;;;;5068176;27;98606;-77
2023/06/22 08:26:28;;;;;;;7.78;6.30;;;;;;;;;;5072121;27;98639;-77
2023/06/22 08:28:55;;;;;;;6.55;6.00;;;;;;;;;;5068078;27;98418;-77
2023/06/22 08:31:21;;;;;;;6.78;6.13;;;;;;;;;;5068420;27;98696;-77
2023/06/22 08:33:48;;;;;;;6.80;6.20;;;;;;;;;;5069588;27;99631;-77
2023/06/22 08:36:16;;;;;;;9.63;5.95;;;;;;;;;;5068744;27;98185;-77
2023/06/22 08:38:42;;;;;;;6.50;5.72;;;;;;;;;;5069739;27;99657;-77
2023/06/22 08:41:09;;;;;;;7.03;5.55;;;;;;;;;;5069138;27;100021;-77
2023/06/22 08:43:35;;;;;;;5.93;5.07;;;;;;;;;;5068712;27;98263;-77
2023/06/22 08:46:02;;;;;;;5.93;5.47;;;;;;;;;;5069195;27;99436;-77
2023/06/22 08:48:29;;;;;;;5.93;5.43;;;;;;;;;;5072227;27;99126;-77
2023/06/22 08:50:55;;;;;;;6.80;5.25;;;;;;;;;;5067873;27;98843;-77
2023/06/22 08:53:22;;;;;;;5.65;4.82;;;;;;;;;;5067640;27;99955;-77
2023/06/22 08:55:50;;;;;;;5.68;5.10;;;;;;;;;;5069571;27;98263;-77
2023/06/22 08:58:18;;;;;;;6.72;5.10;;;;;;;;;;5067997;27;99436;-77
2023/06/22 09:00:44;;;;;;;5.75;4.88;;;;;;;;;;5068590;27;99229;-77
2023/06/22 09:03:11;;;;;;;8.25;4.63;;;;;;;;;;5068661;27;98228;-77
2023/06/22 09:05:38;;;;;;;5.93;4.05;;;;;;;;;;5068470;27;99346;-77
2023/06/22 09:08:04;;;;;;;7.45;3.90;;;;;;;;;;5068420;27;99820;-77
2023/06/22 09:10:31;;;;;;;3.60;3.30;;;;;;;;;;5072281;27;98275;-76
2023/06/22 09:12:58;;;;;;;5.00;3.63;;;;;;;;;;5067011;27;99030;-77
2023/06/22 09:15:24;;;;;;;4.10;3.50;;;;;;;;;;5069011;27;98329;-76
2023/06/22 09:17:53;;;;;;;3.70;3.38;;;;;;;;;;5067900;27;99412;-76
2023/06/22 09:20:20;;;;;;;9.55;3.78;;;;;;;;;;5067400;27;99141;-76
2023/06/22 09:22:46;;;;;;;3.65;3.35;;;;;;;;;;5068588;27;98291;-76
2023/06/22 09:25:13;;;;;;;4.57;4.18;;;;;;;;;;5068612;27;99665;-76
2023/06/22 09:27:39;;;;;;;10.15;4.30;;;;;;;;;;5066887;27;98940;-76
2023/06/22 09:30:06;;;;;;;4.03;3.25;;;;;;;;;;5068193;27;98243;-76
2023/06/22 09:32:33;;;;;;;3.42;3.15;;;;;;;;;;5071525;27;98979;-77
2023/06/22 09:35:05;;;;;;;4.60;4.20;;;;;;;;;;5069251;27;98510;-77
2023/06/22 09:37:32;;;;;;;4.18;3.78;;;;;;;;;;5068517;27;99340;-77
2023/06/22 09:39:58;;;;;;;3.75;3.45;;;;;;;;;;5066696;27;98912;-76
2023/06/22 09:42:25;;;;;;;5.10;3.40;;;;;;;;;;5067483;27;98306;-76
2023/06/22 09:44:51;;;;;;;4.15;3.58;;;;;;;;;;5068304;27;98506;-76
2023/06/22 09:47:17;;;;;;;8.63;3.90;;;;;;;;;;5066420;27;99246;-77
2023/06/22 09:49:44;;;;;;;2.75;2.53;;;;;;;;;;5067554;27;98240;-77
2023/06/22 09:52:14;;;;;;;3.72;3.03;;;;;;;;;;5067313;27;98954;-77
2023/06/22 09:54:40;;;;;;;3.72;3.38;;;;;;;;;;5070524;27;99910;-76
2023/06/22 09:57:07;;;;;;;11.45;3.08;;;;;;;;;;5068054;27;99439;-77
2023/06/22 09:59:34;;;;;;;3.90;2.67;;;;;;;;;;5068129;27;99031;-76
2023/06/22 10:02:00;;;;;;;2.88;2.58;;;;;;;;;;5067377;27;98450;-76
2023/06/22 10:04:27;;;;;;;3.13;2.83;;;;;;;;;;5068217;27;99495;-76
2023/06/22 10:06:54;;;;;;;5.45;3.10;;;;;;;;;;5066641;27;99188;-76
2023/06/22 10:09:21;;;;;;;2.78;2.58;;;;;;;;;;5065826;27;98272;-76
2023/06/22 10:11:48;;;;;;;2.80;2.65;;;;;;;;;;5067518;27;98525;-77
2023/06/22 10:14:14;;;;;;;7.97;3.10;;;;;;;;;;5067239;27;98902;-76
2023/06/22 10:16:41;;;;;;;2.65;2.45;;;;;;;;;;5070729;27;98754;-76
2023/06/22 10:19:08;;;;;;;10.93;3.25;;;;;;;;;;5066835;27;98971;-76
2023/06/22 10:21:34;;;;;;;7.47;2.90;;;;;;;;;;5067511;27;98274;-77
2023/06/22 10:24:05;;;;;;;3.70;3.40;;;;;;;;;;5066510;27;98784;-76
2023/06/22 10:26:33;;;;;;;7.20;3.22;;;;;;;;;;5068063;27;100115;-77
2023/06/22 10:28:59;;;;;;;3.78;2.95;;;;;;;;;;5067156;27;98239;-77
2023/06/22 10:31:32;;;;;;;4.88;3.38;;;;;;;;;;5069317;27;99986;-76
2023/06/22 10:33:59;;;;;;;5.38;2.55;;;;;;;;;;5068872;27;100129;-77
2023/06/22 10:36:28;;;;;;;3.28;2.88;;;;;;;;;;5086534;27;98378;-76
2023/06/22 10:38:55;;;;;;;2.92;2.72;;;;;;;;;;5084521;27;99813;-76
2023/06/22 10:41:21;;;;;;;7.65;3.58;;;;;;;;;;5081202;27;98276;-76
2023/06/22 10:43:48;;;;;;;5.50;3.67;;;;;;;;;;5068543;27;98214;-76
2023/06/22 10:46:14;;;;;;;3.67;3.08;;;;;;;;;;5067701;27;99972;-76
2023/06/22 10:48:41;;;;;;;3.25;2.97;;;;;;;;;;5069984;27;98320;-76
2023/06/22 10:51:07;;;;;;;3.10;2.90;;;;;;;;;;5069659;27;98652;-77
2023/06/22 10:53:34;;;;;;;5.47;3.45;;;;;;;;;;5070245;27;98995;-76
2023/06/22 10:56:00;;;;;;;4.47;3.50;;;;;;;;;;5069733;27;98316;-76
2023/06/22 10:58:27;;;;;;;3.50;3.20;;;;;;;;;;5073630;27;99413;-77
2023/06/22 11:00:53;;;;;;;4.00;3.45;;;;;;;;;;5070483;27;98351;-76
2023/06/22 11:03:20;;;;;;;4.40;4.10;;;;;;;;;;5071075;27;99650;-76
2023/06/22 11:05:47;;;;;;;7.65;5.43;;;;;;;;;;5070052;27;100044;-77
2023/06/22 11:08:14;;;;;;;6.68;5.70;;;;;;;;;;5069798;27;98263;-77
2023/06/22 11:10:41;;;;;;;7.53;6.85;;;;;;;;;;5070779;27;99557;-75
2023/06/22 11:13:09;;;;;;;7.70;7.00;;;;;;;;;;5069825;27;99808;-78
2023/06/22 11:15:38;;;;;;;7.57;6.85;;;;;;;;;;5070147;27;98048;-75
2023/06/22 11:18:05;;;;;;;13.32;6.60;;;;;;;;;;5069606;27;99576;-75
2023/06/22 11:20:34;;;;;;;7.78;6.97;;;;;;;;;;5072749;27;98863;-75
2023/06/22 11:23:00;;;;;;;6.93;6.28;;;;;;;;;;5069667;27;98704;-75
2023/06/22 11:25:28;;;;;;;7.85;7.03;;;;;;;;;;5068847;27;99148;-75
2023/06/22 11:27:54;;;;;;;13.20;7.82;;;;;;;;;;5069947;27;98710;-76
2023/06/22 11:30:21;;;;;;;7.68;6.88;;;;;;;;;;5070456;27;99603;-75
2023/06/22 11:32:47;;;;;;;20.58;7.30;;;;;;;;;;5068928;27;99235;-76
2023/06/22 11:35:14;;;;;;;12.43;7.43;;;;;;;;;;5069608;27;98252;-75
2023/06/22 11:37:42;;;;;;;7.60;6.82;;;;;;;;;;5070107;27;98546;-77
2023/06/22 11:40:10;;;;;;;10.35;6.85;;;;;;;;;;5069107;27;99960;-78
2023/06/22 11:42:37;;;;;;;7.93;7.15;;;;;;;;;;5072961;27;98426;-75
2023/06/22 11:45:04;;;;;;;7.10;6.43;;;;;;;;;;5068841;27;99923;-77
2023/06/22 11:47:31;;;;;;;8.20;7.10;;;;;;;;;;5068743;27;98374;-76
2023/06/22 11:49:57;;;;;;;8.50;7.18;;;;;;;;;;5070073;27;99545;-77
2023/06/22 11:52:27;;;;;;;10.13;7.47;;;;;;;;;;5069163;27;99112;-77
2023/06/22 11:54:53;;;;;;;9.90;7.38;;;;;;;;;;5069416;27;98239;-77
2023/06/22 11:57:20;;;;;;;7.30;6.57;;;;;;;;;;5070718;27;100520;-77
2023/06/22 11:59:46;;;;;;;7.57;6.65;;;;;;;;;;5068153;27;98927;-78
2023/06/22 12:02:12;;;;;;;6.93;6.32;;;;;;;;;;5069424;27;98371;-78
2023/06/22 12:04:39;;;;;;;7.90;6.32;;;;;;;;;;5073382;27;99578;-78
2023/06/22 12:07:05;;;;;;;9.80;7.35;;;;;;;;;;5069885;27;98275;-75
2023/06/22 12:09:32;;;;;;;7.55;6.65;;;;;;;;;;5068158;27;99858;-78
2023/06/22 12:11:59;;;;;;;8.90;6.80;;;;;;;;;;5068830;27;99031;-75
2023/06/22 12:14:25;;;;;;;6.72;6.05;;;;;;;;;;5068050;27;98390;-75
2023/06/22 12:16:52;;;;;;;8.38;6.85;;;;;;;;;;5070153;27;99438;-78
2023/06/22 12:19:20;;;;;;;6.63;6.00;;;;;;;;;;5068651;27;98910;-77
2023/06/22 12:21:47;;;;;;;7.30;6.57;;;;;;;;;;5069308;27;98247;-76
2023/06/22 12:24:13;;;;;;;6.78;5.93;;;;;;;;;;5069691;27;99283;-76
2023/06/22 12:26:40;;;;;;;7.38;6.70;;;;;;;;;;5072694;27;98803;-76
2023/06/22 12:29:06;;;;;;;6.60;5.78;;;;;;;;;;5067931;27;98577;-76
2023/06/22 12:31:32;;;;;;;7.70;5.88;;;;;;;;;;5069651;27;100264;-76
2023/06/22 12:33:59;;;;;;;9.43;6.50;;;;;;;;;;5068710;27;98333;-76
2023/06/22 12:36:25;;;;;;;6.72;6.03;;;;;;;;;;5068824;27;99868;-76
2023/06/22 12:38:52;;;;;;;8.60;6.47;;;;;;;;;;5069603;27;98831;-76
2023/06/22 12:41:21;;;;;;;7.45;6.43;;;;;;;;;;5069655;27;98149;-77
2023/06/22 12:43:48;;;;;;;8.48;5.90;;;;;;;;;;5070350;27;99403;-75
2023/06/22 12:46:14;;;;;;;9.13;6.47;;;;;;;;;;5072044;27;98833;-75
2023/06/22 12:48:42;;;;;;;7.95;6.00;;;;;;;;;;5069757;27;99230;-75
2023/06/22 12:51:09;;;;;;;6.85;6.13;;;;;;;;;;5067423;27;98929;-75
2023/06/22 12:53:36;;;;;;;7.32;6.10;;;;;;;;;;5069351;27;98261;-76
2023/06/22 12:56:02;;;;;;;6.82;6.03;;;;;;;;;;5068726;27;98546;-75
2023/06/22 12:58:29;;;;;;;6.72;5.55;;;;;;;;;;5067734;27;100118;-75
2023/06/22 13:00:55;;;;;;;12.57;6.25;;;;;;;;;;5068905;27;98254;-75
2023/06/22 13:03:24;;;;;;;10.50;6.53;;;;;;;;;;5068581;27;98755;-76
2023/06/22 13:05:50;;;;;;;6.97;6.28;;;;;;;;;;5067402;27;99149;-76
2023/06/22 13:08:17;;;;;;;7.03;6.05;;;;;;;;;;5070559;27;98273;-76
2023/06/22 13:10:43;;;;;;;9.80;5.78;;;;;;;;;;5067801;27;100032;-77
2023/06/22 13:13:09;;;;;;;7.32;6.50;;;;;;;;;;5068515;27;98738;-75
2023/06/22 13:15:37;;;;;;;10.07;6.53;;;;;;;;;;5068811;27;98653;-77
2023/06/22 13:18:04;;;;;;;6.45;5.70;;;;;;;;;;5068107;27;99893;-77
2023/06/22 13:20:30;;;;;;;5.63;5.10;;;;;;;;;;5069343;27;98281;-77
2023/06/22 13:22:57;;;;;;;7.47;6.72;;;;;;;;;;5068146;27;99477;-77
2023/06/22 13:25:26;;;;;;;7.45;6.68;;;;;;;;;;5068230;27;99183;-77
2023/06/22 13:27:53;;;;;;;6.80;6.13;;;;;;;;;;5068528;27;98263;-77
2023/06/22 13:30:19;;;;;;;7.95;6.85;;;;;;;;;;5071013;27;98932;-77
2023/06/22 13:32:46;;;;;;;7.82;6.57;;;;;;;;;;5067667;27;98370;-77
2023/06/22 13:35:12;;;;;;;10.48;6.72;;;;;;;;;;5068554;27;99476;-77
2023/06/22 13:37:39;;;;;;;8.10;7.28;;;;;;;;;;5068107;27;99018;-77
2023/06/22 13:40:06;;;;;;;10.63;6.78;;;;;;;;;;5068490;27;98312;-77
2023/06/22 13:42:33;;;;;;;10.13;7.32;;;;;;;;;;5071214;27;98428;-77
2023/06/22 13:44:59;;;;;;;8.10;7.20;;;;;;;;;;5069247;27;99878;-77
2023/06/22 13:47:26;;;;;;;8.52;7.63;;;;;;;;;;5067203;27;98244;-77
2023/06/22 13:49:57;;;;;;;9.18;7.50;;;;;;;;;;5068248;27;99399;-76
2023/06/22 13:52:23;;;;;;;9.98;7.30;;;;;;;;;;5070560;27;98892;-76
2023/06/22 13:54:50;;;;;;;9.38;7.20;;;;;;;;;;5067800;27;100097;-77
2023/06/22 13:57:16;;;;;;;10.23;7.45;;;;;;;;;;5066879;27;98876;-76
2023/06/22 13:59:43;;;;;;;7.95;7.05;;;;;;;;;;5067772;27;98322;-77
2023/06/22 14:02:09;;;;;;;8.65;7.85;;;;;;;;;;5067211;27;99715;-76
2023/06/22 14:04:36;;;;;;;8.68;7.30;;;;;;;;;;5068139;27;99808;-77
2023/06/22 14:07:02;;;;;;;9.45;7.60;;;;;;;;;;5066994;27;98330;-76
2023/06/22 14:09:29;;;;;;;8.77;7.95;;;;;;;;;;5067469;27;98627;-76
2023/06/22 14:11:57;;;;;;;13.48;7.30;;;;;;;;;;5067096;27;100057;-76
2023/06/22 14:14:23;;;;;;;10.60;7.68;;;;;;;;;;5070406;27;98415;-76
2023/06/22 14:16:50;;;;;;;8.88;7.65;;;;;;;;;;5066874;27;99116;-76
2023/06/22 14:19:17;;;;;;;9.55;7.65;;;;;;;;;;5066798;27;98589;-76
2023/06/22 14:21:44;;;;;;;9.75;8.15;;;;;;;;;;5066016;27;98767;-76
2023/06/22 14:24:10;;;;;;;8.77;8.00;;;;;;;;;;5066299;27;99076;-76
2023/06/22 14:26:37;;;;;;;8.50;7.70;;;;;;;;;;5067385;27;98242;-76
2023/06/22 14:29:03;;;;;;;12.35;8.40;;;;;;;;;;5067171;27;99571;-76
2023/06/22 14:31:30;;;;;;;8.57;7.75;;;;;;;;;;5067243;27;99317;-77
2023/06/22 14:33:56;;;;;;;13.40;8.40;;;;;;;;;;5070862;27;98270;-76